sensor_id;sensor_type;location;lat;lon;timestamp;temperature;humidity
6740;DHT22;3407;49.882;10.920;2023-04-03T00:00:36;2.80;1.00
6740;DHT22;3407;49.882;10.920;2023-04-03T00:05:32;2.60;1.00
6740;DHT22;3407;49.882;10.920;2023-04-03T00:10:27;2.60;1.00
6740;DHT22;3407;49.882;10.920;2023-04-03T00:15:23;2.60;1.00
6740;DHT22;3407;49.882;10.920;2023-04-03T00:20:19;2.70;99.90
6740;DHT22;3407;49.882;10.920;2023-04-03T00:25:14;2.90;34.40
6740;DHT22;3407;49.882;10.920;2023-04-03T00:30:13;3.00;1.00
6740;DHT22;3407;49.882;10.920;2023-04-03T00:35:09;3.10;99.90
6740;DHT22;3407;49.882;10.920;2023-04-03T00:40:06;3.00;99.90
6740;DHT22;3407;49.882;10.920;2023-04-03T00:49:57;3.00;92.10
6740;DHT22;3407;49.882;10.920;2023-04-03T00:54:58;3.00;94.60
6740;DHT22;3407;49.882;10.920;2023-04-03T01:00:01;3.10;65.70
6740;DHT22;3407;49.882;10.920;2023-04-03T01:04:58;3.20;1.00
6740;DHT22;3407;49.882;10.920;2023-04-03T01:09:58;3.20;1.00
6740;DHT22;3407;49.882;10.920;2023-04-03T01:25:16;3.30;99.90
6740;DHT22;3407;49.882;10.920;2023-04-03T01:30:13;3.20;99.90
6740;DHT22;3407;49.882;10.920;2023-04-03T01:35:10;3.10;1.00
6740;DHT22;3407;49.882;10.920;2023-04-03T01:40:06;3.20;99.90
6740;DHT22;3407;49.882;10.920;2023-04-03T01:45:03;3.30;99.90
6740;DHT22;3407;49.882;10.920;2023-04-03T01:49:58;3.40;99.90
6740;DHT22;3407;49.882;10.920;2023-04-03T01:54:54;3.40;1.00
6740;DHT22;3407;49.882;10.920;2023-04-03T01:59:49;3.40;99.90
6740;DHT22;3407;49.882;10.920;2023-04-03T02:04:45;3.30;1.00
6740;DHT22;3407;49.882;10.920;2023-04-03T02:09:40;3.20;1.00
6740;DHT22;3407;49.882;10.920;2023-04-03T02:14:36;3.20;1.00
6740;DHT22;3407;49.882;10.920;2023-04-03T02:19:31;3.10;1.00
6740;DHT22;3407;49.882;10.920;2023-04-03T02:24:27;3.20;1.00
6740;DHT22;3407;49.882;10.920;2023-04-03T02:29:22;3.20;1.00
6740;DHT22;3407;49.882;10.920;2023-04-03T02:34:18;3.30;1.00
6740;DHT22;3407;49.882;10.920;2023-04-03T02:39:14;3.30;1.00
6740;DHT22;3407;49.882;10.920;2023-04-03T02:44:10;3.30;99.90
6740;DHT22;3407;49.882;10.920;2023-04-03T02:49:06;3.20;1.00
6740;DHT22;3407;49.882;10.920;2023-04-03T02:54:02;3.20;1.00
6740;DHT22;3407;49.882;10.920;2023-04-03T02:58:58;3.20;99.90
6740;DHT22;3407;49.882;10.920;2023-04-03T03:03:54;3.30;99.90
6740;DHT22;3407;49.882;10.920;2023-04-03T03:08:49;3.30;99.90
6740;DHT22;3407;49.882;10.920;2023-04-03T03:13:45;3.30;99.90
6740;DHT22;3407;49.882;10.920;2023-04-03T03:18:41;3.30;99.90
6740;DHT22;3407;49.882;10.920;2023-04-03T03:23:36;3.40;99.90
6740;DHT22;3407;49.882;10.920;2023-04-03T03:28:33;3.30;99.90
6740;DHT22;3407;49.882;10.920;2023-04-03T03:33:29;3.20;99.90
6740;DHT22;3407;49.882;10.920;2023-04-03T03:38:24;3.20;99.90
6740;DHT22;3407;49.882;10.920;2023-04-03T03:43:20;3.20;99.90
6740;DHT22;3407;49.882;10.920;2023-04-03T03:48:16;3.20;1.00
6740;DHT22;3407;49.882;10.920;2023-04-03T03:53:11;3.00;1.00
6740;DHT22;3407;49.882;10.920;2023-04-03T03:58:07;3.00;1.00
6740;DHT22;3407;49.882;10.920;2023-04-03T04:03:03;3.00;1.00
6740;DHT22;3407;49.882;10.920;2023-04-03T04:07:58;2.90;99.90
6740;DHT22;3407;49.882;10.920;2023-04-03T04:12:54;2.90;99.90
6740;DHT22;3407;49.882;10.920;2023-04-03T04:17:49;2.90;99.90
6740;DHT22;3407;49.882;10.920;2023-04-03T04:22:45;2.80;99.90
6740;DHT22;3407;49.882;10.920;2023-04-03T04:27:40;2.80;99.90
6740;DHT22;3407;49.882;10.920;2023-04-03T04:32:36;2.80;99.90
6740;DHT22;3407;49.882;10.920;2023-04-03T04:37:32;2.70;99.90
6740;DHT22;3407;49.882;10.920;2023-04-03T04:42:28;2.70;99.90
6740;DHT22;3407;49.882;10.920;2023-04-03T04:47:23;2.60;99.90
6740;DHT22;3407;49.882;10.920;2023-04-03T04:52:19;2.50;1.00
6740;DHT22;3407;49.882;10.920;2023-04-03T04:57:15;2.40;83.70
6740;DHT22;3407;49.882;10.920;2023-04-03T05:02:11;2.40;1.00
6740;DHT22;3407;49.882;10.920;2023-04-03T05:07:06;2.40;1.00
6740;DHT22;3407;49.882;10.920;2023-04-03T05:12:02;2.40;1.00
6740;DHT22;3407;49.882;10.920;2023-04-03T05:16:58;2.40;1.00
6740;DHT22;3407;49.882;10.920;2023-04-03T05:21:54;2.40;1.00
6740;DHT22;3407;49.882;10.920;2023-04-03T05:26:50;2.40;1.00
6740;DHT22;3407;49.882;10.920;2023-04-03T05:31:45;2.50;99.90
6740;DHT22;3407;49.882;10.920;2023-04-03T05:36:41;2.60;99.90
6740;DHT22;3407;49.882;10.920;2023-04-03T05:41:36;2.70;99.90
6740;DHT22;3407;49.882;10.920;2023-04-03T05:46:32;3.00;1.00
6740;DHT22;3407;49.882;10.920;2023-04-03T05:51:33;3.60;99.90
6740;DHT22;3407;49.882;10.920;2023-04-03T05:56:28;4.50;1.00
6740;DHT22;3407;49.882;10.920;2023-04-03T06:01:24;4.80;99.90
6740;DHT22;3407;49.882;10.920;2023-04-03T06:06:19;5.40;1.00
6740;DHT22;3407;49.882;10.920;2023-04-03T06:11:15;7.10;1.00
6740;DHT22;3407;49.882;10.920;2023-04-03T06:16:15;6.40;99.90
6740;DHT22;3407;49.882;10.920;2023-04-03T06:21:12;5.30;1.00
6740;DHT22;3407;49.882;10.920;2023-04-03T06:26:07;4.10;76.10
6740;DHT22;3407;49.882;10.920;2023-04-03T06:31:03;3.80;99.90
6740;DHT22;3407;49.882;10.920;2023-04-03T06:35:58;3.40;1.00
6740;DHT22;3407;49.882;10.920;2023-04-03T06:40:54;3.30;1.00
6740;DHT22;3407;49.882;10.920;2023-04-03T06:45:51;3.40;1.00
6740;DHT22;3407;49.882;10.920;2023-04-03T06:50:46;3.60;99.90
6740;DHT22;3407;49.882;10.920;2023-04-03T06:55:42;4.70;1.00
6740;DHT22;3407;49.882;10.920;2023-04-03T07:00:37;4.50;1.00
6740;DHT22;3407;49.882;10.920;2023-04-03T07:05:33;4.30;1.00
6740;DHT22;3407;49.882;10.920;2023-04-03T07:10:28;4.80;1.00
6740;DHT22;3407;49.882;10.920;2023-04-03T07:15:24;6.00;1.00
6740;DHT22;3407;49.882;10.920;2023-04-03T07:20:20;7.40;99.90
6740;DHT22;3407;49.882;10.920;2023-04-03T07:25:15;9.40;99.90
6740;DHT22;3407;49.882;10.920;2023-04-03T07:30:11;10.30;99.90
6740;DHT22;3407;49.882;10.920;2023-04-03T07:35:09;10.20;99.90
6740;DHT22;3407;49.882;10.920;2023-04-03T07:40:05;10.30;99.90
6740;DHT22;3407;49.882;10.920;2023-04-03T07:45:03;11.10;99.90
6740;DHT22;3407;49.882;10.920;2023-04-03T07:49:59;11.60;99.90
6740;DHT22;3407;49.882;10.920;2023-04-03T07:54:54;11.30;99.90
6740;DHT22;3407;49.882;10.920;2023-04-03T07:59:50;11.90;99.90
6740;DHT22;3407;49.882;10.920;2023-04-03T08:04:45;12.40;99.90
6740;DHT22;3407;49.882;10.920;2023-04-03T08:09:41;14.30;99.90
6740;DHT22;3407;49.882;10.920;2023-04-03T08:14:37;16.80;99.90
6740;DHT22;3407;49.882;10.920;2023-04-03T08:19:32;15.70;99.90
6740;DHT22;3407;49.882;10.920;2023-04-03T08:24:28;14.70;99.90
6740;DHT22;3407;49.882;10.920;2023-04-03T08:29:24;15.30;99.90
6740;DHT22;3407;49.882;10.920;2023-04-03T08:34:20;10.70;99.90
6740;DHT22;3407;49.882;10.920;2023-04-03T08:39:15;8.60;99.90
6740;DHT22;3407;49.882;10.920;2023-04-03T08:44:39;9.30;99.90
6740;DHT22;3407;49.882;10.920;2023-04-03T08:50:19;11.40;99.90
6740;DHT22;3407;49.882;10.920;2023-04-03T08:55:24;10.90;99.90
6740;DHT22;3407;49.882;10.920;2023-04-03T09:00:23;11.80;99.90
6740;DHT22;3407;49.882;10.920;2023-04-03T09:10:27;9.80;99.90
6740;DHT22;3407;49.882;10.920;2023-04-03T09:15:24;10.90;99.90
6740;DHT22;3407;49.882;10.920;2023-04-03T09:21:01;11.20;99.90
6740;DHT22;3407;49.882;10.920;2023-04-03T09:26:04;11.80;99.90
6740;DHT22;3407;49.882;10.920;2023-04-03T09:31:03;11.40;99.90
6740;DHT22;3407;49.882;10.920;2023-04-03T09:36:02;13.70;99.90
6740;DHT22;3407;49.882;10.920;2023-04-03T09:41:06;14.00;99.90
6740;DHT22;3407;49.882;10.920;2023-04-03T09:46:32;14.00;99.90
6740;DHT22;3407;49.882;10.920;2023-04-03T09:51:30;13.70;99.90
6740;DHT22;3407;49.882;10.920;2023-04-03T09:56:30;13.50;99.90
6740;DHT22;3407;49.882;10.920;2023-04-03T10:06:25;12.90;99.90
6740;DHT22;3407;49.882;10.920;2023-04-03T10:11:20;12.90;99.90
6740;DHT22;3407;49.882;10.920;2023-04-03T10:16:27;13.60;99.90
6740;DHT22;3407;49.882;10.920;2023-04-03T10:21:29;14.60;99.90
6740;DHT22;3407;49.882;10.920;2023-04-03T10:31:48;16.00;99.90
6740;DHT22;3407;49.882;10.920;2023-04-03T10:37:13;16.70;99.90
6740;DHT22;3407;49.882;10.920;2023-04-03T10:53:19;16.20;99.90
6740;DHT22;3407;49.882;10.920;2023-04-03T10:58:32;17.60;99.90
6740;DHT22;3407;49.882;10.920;2023-04-03T11:03:48;17.70;99.90
6740;DHT22;3407;49.882;10.920;2023-04-03T11:13:52;17.80;99.90
6740;DHT22;3407;49.882;10.920;2023-04-03T11:24:27;18.90;99.90
6740;DHT22;3407;49.882;10.920;2023-04-03T11:29:32;14.90;99.90
6740;DHT22;3407;49.882;10.920;2023-04-03T11:34:42;10.90;99.90
6740;DHT22;3407;49.882;10.920;2023-04-03T11:39:39;12.90;99.90
6740;DHT22;3407;49.882;10.920;2023-04-03T11:44:40;15.40;99.90
6740;DHT22;3407;49.882;10.920;2023-04-03T11:54:54;15.00;99.90
6740;DHT22;3407;49.882;10.920;2023-04-03T11:59:50;13.90;99.90
6740;DHT22;3407;49.882;10.920;2023-04-03T12:05:26;14.90;99.90
6740;DHT22;3407;49.882;10.920;2023-04-03T12:10:22;14.70;99.90
6740;DHT22;3407;49.882;10.920;2023-04-03T12:25:50;15.00;99.90
6740;DHT22;3407;49.882;10.920;2023-04-03T12:30:46;14.10;99.90
6740;DHT22;3407;49.882;10.920;2023-04-03T12:36:02;13.60;99.90
6740;DHT22;3407;49.882;10.920;2023-04-03T12:41:18;14.40;99.90
6740;DHT22;3407;49.882;10.920;2023-04-03T12:46:18;15.10;99.90
6740;DHT22;3407;49.882;10.920;2023-04-03T12:51:37;15.60;99.90
6740;DHT22;3407;49.882;10.920;2023-04-03T12:56:35;15.00;99.90
6740;DHT22;3407;49.882;10.920;2023-04-03T13:01:31;14.80;99.90
6740;DHT22;3407;49.882;10.920;2023-04-03T13:06:30;15.10;99.90
6740;DHT22;3407;49.882;10.920;2023-04-03T13:11:41;14.10;99.90
6740;DHT22;3407;49.882;10.920;2023-04-03T13:16:37;13.50;99.90
6740;DHT22;3407;49.882;10.920;2023-04-03T13:21:36;13.20;99.90
6740;DHT22;3407;49.882;10.920;2023-04-03T13:26:32;13.10;99.90
6740;DHT22;3407;49.882;10.920;2023-04-03T13:31:36;12.50;99.90
6740;DHT22;3407;49.882;10.920;2023-04-03T13:36:39;12.90;99.90
6740;DHT22;3407;49.882;10.920;2023-04-03T13:41:38;13.40;99.90
6740;DHT22;3407;49.882;10.920;2023-04-03T13:46:33;12.10;99.90
6740;DHT22;3407;49.882;10.920;2023-04-03T13:51:29;12.70;99.90
6740;DHT22;3407;49.882;10.920;2023-04-03T14:01:23;12.70;99.90
6740;DHT22;3407;49.882;10.920;2023-04-03T14:06:19;12.40;99.90
6740;DHT22;3407;49.882;10.920;2023-04-03T14:11:21;12.70;99.90
6740;DHT22;3407;49.882;10.920;2023-04-03T14:16:21;13.30;99.90
6740;DHT22;3407;49.882;10.920;2023-04-03T14:21:18;12.50;99.90
6740;DHT22;3407;49.882;10.920;2023-04-03T14:26:17;12.90;99.90
6740;DHT22;3407;49.882;10.920;2023-04-03T14:31:13;12.20;99.90
6740;DHT22;3407;49.882;10.920;2023-04-03T14:36:15;10.90;99.90
6740;DHT22;3407;49.882;10.920;2023-04-03T14:41:13;10.20;99.90
6740;DHT22;3407;49.882;10.920;2023-04-03T14:46:17;10.40;99.90
6740;DHT22;3407;49.882;10.920;2023-04-03T14:51:13;10.80;99.90
6740;DHT22;3407;49.882;10.920;2023-04-03T14:56:27;10.10;99.90
6740;DHT22;3407;49.882;10.920;2023-04-03T15:01:24;9.40;99.90
6740;DHT22;3407;49.882;10.920;2023-04-03T15:06:20;9.30;99.90
6740;DHT22;3407;49.882;10.920;2023-04-03T15:11:16;9.00;99.90
6740;DHT22;3407;49.882;10.920;2023-04-03T15:16:19;8.60;99.90
6740;DHT22;3407;49.882;10.920;2023-04-03T15:21:15;8.50;99.90
6740;DHT22;3407;49.882;10.920;2023-04-03T15:26:10;8.40;99.90
6740;DHT22;3407;49.882;10.920;2023-04-03T15:31:06;7.80;99.90
6740;DHT22;3407;49.882;10.920;2023-04-03T15:36:03;7.90;99.90
6740;DHT22;3407;49.882;10.920;2023-04-03T15:40:58;8.30;99.90
6740;DHT22;3407;49.882;10.920;2023-04-03T15:45:57;8.40;99.90
6740;DHT22;3407;49.882;10.920;2023-04-03T15:50:53;8.30;99.90
6740;DHT22;3407;49.882;10.920;2023-04-03T15:55:49;7.50;99.90
6740;DHT22;3407;49.882;10.920;2023-04-03T16:00:44;7.10;99.90
6740;DHT22;3407;49.882;10.920;2023-04-03T16:05:40;7.20;99.90
6740;DHT22;3407;49.882;10.920;2023-04-03T16:10:37;7.40;99.90
6740;DHT22;3407;49.882;10.920;2023-04-03T16:15:34;7.10;99.90
6740;DHT22;3407;49.882;10.920;2023-04-03T16:20:29;6.90;99.90
6740;DHT22;3407;49.882;10.920;2023-04-03T16:25:25;6.90;99.90
6740;DHT22;3407;49.882;10.920;2023-04-03T16:30:21;7.00;99.90
6740;DHT22;3407;49.882;10.920;2023-04-03T16:35:17;6.60;99.90
6740;DHT22;3407;49.882;10.920;2023-04-03T16:40:13;6.50;99.90
6740;DHT22;3407;49.882;10.920;2023-04-03T16:45:08;6.60;99.90
6740;DHT22;3407;49.882;10.920;2023-04-03T16:50:04;6.50;99.90
6740;DHT22;3407;49.882;10.920;2023-04-03T16:55:00;6.40;99.90
6740;DHT22;3407;49.882;10.920;2023-04-03T16:59:56;6.10;99.90
6740;DHT22;3407;49.882;10.920;2023-04-03T17:04:54;5.80;99.90
6740;DHT22;3407;49.882;10.920;2023-04-03T17:09:50;5.80;99.90
6740;DHT22;3407;49.882;10.920;2023-04-03T17:14:46;5.70;99.90
6740;DHT22;3407;49.882;10.920;2023-04-03T17:19:43;5.50;99.90
6740;DHT22;3407;49.882;10.920;2023-04-03T17:24:38;5.20;99.90
6740;DHT22;3407;49.882;10.920;2023-04-03T17:29:34;5.00;99.90
6740;DHT22;3407;49.882;10.920;2023-04-03T17:34:30;4.90;99.90
6740;DHT22;3407;49.882;10.920;2023-04-03T17:39:25;4.80;99.90
6740;DHT22;3407;49.882;10.920;2023-04-03T17:44:21;4.70;99.90
6740;DHT22;3407;49.882;10.920;2023-04-03T17:49:16;4.60;99.90
6740;DHT22;3407;49.882;10.920;2023-04-03T17:54:14;4.50;99.90
6740;DHT22;3407;49.882;10.920;2023-04-03T17:59:11;4.30;99.90
6740;DHT22;3407;49.882;10.920;2023-04-03T18:04:06;4.20;99.90
6740;DHT22;3407;49.882;10.920;2023-04-03T18:09:14;4.20;99.90
6740;DHT22;3407;49.882;10.920;2023-04-03T18:14:12;4.10;99.90
6740;DHT22;3407;49.882;10.920;2023-04-03T18:19:08;4.00;99.90
6740;DHT22;3407;49.882;10.920;2023-04-03T18:24:06;4.10;99.90
6740;DHT22;3407;49.882;10.920;2023-04-03T18:29:05;3.90;99.90
6740;DHT22;3407;49.882;10.920;2023-04-03T18:34:03;3.90;99.90
6740;DHT22;3407;49.882;10.920;2023-04-03T18:38:58;3.90;99.90
6740;DHT22;3407;49.882;10.920;2023-04-03T18:43:55;3.80;99.90
6740;DHT22;3407;49.882;10.920;2023-04-03T18:48:52;3.80;99.90
6740;DHT22;3407;49.882;10.920;2023-04-03T18:53:48;3.70;99.90
6740;DHT22;3407;49.882;10.920;2023-04-03T18:58:44;3.60;99.90
6740;DHT22;3407;49.882;10.920;2023-04-03T19:03:40;3.60;99.90
6740;DHT22;3407;49.882;10.920;2023-04-03T19:08:35;3.50;99.90
6740;DHT22;3407;49.882;10.920;2023-04-03T19:13:31;3.50;99.90
6740;DHT22;3407;49.882;10.920;2023-04-03T19:18:28;3.50;99.90
6740;DHT22;3407;49.882;10.920;2023-04-03T19:23:24;3.40;99.90
6740;DHT22;3407;49.882;10.920;2023-04-03T19:28:20;3.40;99.90
6740;DHT22;3407;49.882;10.920;2023-04-03T19:33:15;3.30;99.90
6740;DHT22;3407;49.882;10.920;2023-04-03T19:38:11;3.30;99.90
6740;DHT22;3407;49.882;10.920;2023-04-03T19:43:06;3.30;99.90
6740;DHT22;3407;49.882;10.920;2023-04-03T19:48:03;3.20;99.90
6740;DHT22;3407;49.882;10.920;2023-04-03T19:53:00;3.20;99.90
6740;DHT22;3407;49.882;10.920;2023-04-03T19:58:00;3.10;99.90
6740;DHT22;3407;49.882;10.920;2023-04-03T20:02:56;3.10;99.90
6740;DHT22;3407;49.882;10.920;2023-04-03T20:07:52;3.00;99.90
6740;DHT22;3407;49.882;10.920;2023-04-03T20:12:47;3.00;99.90
6740;DHT22;3407;49.882;10.920;2023-04-03T20:17:44;3.00;99.90
6740;DHT22;3407;49.882;10.920;2023-04-03T20:22:40;3.00;99.90
6740;DHT22;3407;49.882;10.920;2023-04-03T20:27:36;2.90;99.90
6740;DHT22;3407;49.882;10.920;2023-04-03T20:32:31;3.00;99.90
6740;DHT22;3407;49.882;10.920;2023-04-03T20:37:27;2.90;99.90
6740;DHT22;3407;49.882;10.920;2023-04-03T20:42:23;2.90;99.90
6740;DHT22;3407;49.882;10.920;2023-04-03T20:47:18;2.80;99.90
6740;DHT22;3407;49.882;10.920;2023-04-03T20:52:14;2.90;99.90
6740;DHT22;3407;49.882;10.920;2023-04-03T20:57:09;2.90;99.90
6740;DHT22;3407;49.882;10.920;2023-04-03T21:02:05;2.90;99.90
6740;DHT22;3407;49.882;10.920;2023-04-03T21:23:04;2.90;99.90
6740;DHT22;3407;49.882;10.920;2023-04-03T21:27:59;2.80;99.90
6740;DHT22;3407;49.882;10.920;2023-04-03T21:32:57;2.80;99.90
6740;DHT22;3407;49.882;10.920;2023-04-03T21:37:52;2.80;99.90
6740;DHT22;3407;49.882;10.920;2023-04-03T21:42:52;2.70;99.90
6740;DHT22;3407;49.882;10.920;2023-04-03T21:47:48;2.80;99.90
6740;DHT22;3407;49.882;10.920;2023-04-03T21:52:45;2.70;99.90
6740;DHT22;3407;49.882;10.920;2023-04-03T21:57:41;2.80;99.90
6740;DHT22;3407;49.882;10.920;2023-04-03T22:02:39;2.80;99.90
6740;DHT22;3407;49.882;10.920;2023-04-03T22:07:35;2.90;99.90
6740;DHT22;3407;49.882;10.920;2023-04-03T22:12:30;2.80;99.90
6740;DHT22;3407;49.882;10.920;2023-04-03T22:17:29;2.90;99.90
6740;DHT22;3407;49.882;10.920;2023-04-03T22:22:25;2.80;99.90
6740;DHT22;3407;49.882;10.920;2023-04-03T22:27:21;2.70;99.90
6740;DHT22;3407;49.882;10.920;2023-04-03T22:32:17;2.70;99.90
6740;DHT22;3407;49.882;10.920;2023-04-03T22:37:12;2.70;99.90
6740;DHT22;3407;49.882;10.920;2023-04-03T22:42:08;2.70;99.90
6740;DHT22;3407;49.882;10.920;2023-04-03T22:47:03;2.70;99.90
6740;DHT22;3407;49.882;10.920;2023-04-03T22:51:59;2.70;99.90
6740;DHT22;3407;49.882;10.920;2023-04-03T22:56:54;2.60;99.90
6740;DHT22;3407;49.882;10.920;2023-04-03T23:01:50;2.70;99.90
6740;DHT22;3407;49.882;10.920;2023-04-03T23:06:45;2.70;99.90
6740;DHT22;3407;49.882;10.920;2023-04-03T23:11:41;2.70;99.90
6740;DHT22;3407;49.882;10.920;2023-04-03T23:16:37;2.70;99.90
6740;DHT22;3407;49.882;10.920;2023-04-03T23:21:33;2.70;99.90
6740;DHT22;3407;49.882;10.920;2023-04-03T23:26:28;2.70;99.90
6740;DHT22;3407;49.882;10.920;2023-04-03T23:31:24;2.70;99.90
6740;DHT22;3407;49.882;10.920;2023-04-03T23:36:20;2.70;99.90
6740;DHT22;3407;49.882;10.920;2023-04-03T23:41:15;2.60;99.90
6740;DHT22;3407;49.882;10.920;2023-04-03T23:46:11;2.60;99.90
6740;DHT22;3407;49.882;10.920;2023-04-03T23:51:07;2.60;99.90
6740;DHT22;3407;49.882;10.920;2023-04-03T23:56:02;2.50;99.90
